Soaring Guidance
Issued by NWS Reno, NV

Home | Current Version | Previous Version | Text Only | Print | Product List | Glossary On
Versions: 1 2 3 4 5 6 7
000
UXUS97 KREV 221346
SRGREV

SOARING FORECAST
NATIONAL WEATHER SERVICE - RENO NV
700 AM PDT FRI JUL 22 2016

THIS SOARING FORECAST IS FOR THE EASTERN SIERRA AND WESTERN NEVADA
WITH SPECIFIC INDICES FOR THE GREATER RENO AREA.

THIS FORECAST IS PREPARED DAILY BY 700 AM AND IS NOT UPDATED.

FOR CURRENT FLIGHT CONDITIONS...FORECASTS...AND ADVISORIES...ACCESS
YOUR LOCAL BRIEFING OUTLET OR FLIGHT SERVICE STATION.

*******************************************************************
FORECASTED LOCAL INDICES FOR RENO:        TODAY     YESTERDAY
FORECASTED MAX TEMP AT RENO (DEG F).....     95          96
FORECASTED TRIGGER TEMPERATURE (DEG F)..     78          81
   EXCEEDED YESTERDAY BY 1155 AM PDT
FORECASTED MAXIMUM ALTITUDE (FT MSL)....  16600       17600
FORECASTED SOARING INDEX (FPM)..........   1008        1218
FORECASTED K-INDEX.........VALID 18Z....    -10           0
FORECASTED K-INDEX.........VALID 00Z....     -5          13
FORECASTED LIFTED INDEX....VALID 18Z....     10           8
FORECASTED LIFTED INDEX....VALID 00Z....      9           5

AFTERNOON WINDS ALOFT FORECAST
MSL (FT) WIND/TEMP
9000  2712/+17
10000 2512/+14
12000 2413/+10
14000 2415/+04
16000 2518/-02
18000 2626/-08
24000 2643/-19
30000 2549/-35
34000 2556/-43
39000 2457/-53

SLIDE MOUNTAIN DATA:
     DATE       TIME     TEMP  DEWPT   RH         WIND (MPH)
                        (F)   (F)           | DIR  SPEED GUST
2016-07-22    04:50      50    21     19    | 248   25   33
2016-07-22    04:30      50    21     19    | 252   25   37
2016-07-22    04:20      50    21     19    | 252   26   35
2016-07-22    04:00      50    21     19    | 251   25   38

RENO TAF FORECAST:
KRNO 221121Z 2212/2312 VRB04KT P6SM SKC
     FM222200 29012G23KT P6SM SKC
     FM230400 32007KT P6SM SKC
     FM230800 VRB04KT P6SM SKC

CARSON CITY TAF FORECAST:
KCXP 221121Z 2212/2312 VRB04KT P6SM SKC
     FM222100 26012G23KT P6SM SKC
     FM230300 29007KT P6SM SKC
     FM230700 VRB04KT P6SM SKC

OUTLOOK FOR THE RENO-CARSON CITY-MINDEN AREA:
.SATURDAY...SUNNY. HIGHS 92 TO 97. LIGHT WINDS.

SUNRISE AND SUNSET
JULY 22 2016..........SUNRISE   550 AM PDT   SUNSET   820 PM PDT
JULY 23 2016..........SUNRISE   551 AM PDT   SUNSET   819 PM PDT



USA.gov is the U.S. government's official web portal to all federal, state and local government web resources and services.